createdAt,value
2018-02-15T00:02:21.520Z,25.95
2018-02-15T00:04:49.083Z,26.42
2018-02-15T00:07:16.677Z,26.08
2018-02-15T00:09:44.295Z,28.20
2018-02-15T00:12:11.889Z,24.37
2018-02-15T00:14:39.440Z,25.50
2018-02-15T00:17:07.041Z,26.27
2018-02-15T00:19:35.400Z,25.00
2018-02-15T00:22:02.976Z,26.85
2018-02-15T00:24:31.345Z,24.00
2018-02-15T00:26:58.995Z,26.98
2018-02-15T00:29:26.563Z,25.50
2018-02-15T00:31:54.112Z,22.65
2018-02-15T00:34:21.713Z,25.75
2018-02-15T00:36:50.042Z,25.58
2018-02-15T00:39:17.628Z,25.67
2018-02-15T00:41:45.177Z,24.95
2018-02-15T00:44:12.772Z,26.90
2018-02-15T00:46:41.118Z,27.52
2018-02-15T00:49:08.711Z,25.58
2018-02-15T00:51:36.268Z,26.00
2018-02-15T00:54:04.615Z,26.10
2018-02-15T00:56:32.160Z,26.35
2018-02-15T00:58:59.765Z,26.00
2018-02-15T01:01:30.148Z,26.55
2018-02-15T01:03:57.736Z,25.17
2018-02-15T01:06:25.295Z,24.90
2018-02-15T01:08:52.894Z,24.92
2018-02-15T01:11:21.260Z,24.67
2018-02-15T01:13:49.584Z,25.25
2018-02-15T01:16:17.176Z,26.70
2018-02-15T01:18:44.736Z,22.73
2018-02-15T01:21:12.336Z,26.23
2018-02-15T01:23:40.688Z,25.00
2018-02-15T01:26:08.232Z,26.98
2018-02-15T01:28:35.823Z,28.10
2018-02-15T01:31:04.142Z,27.80
2018-02-15T01:33:31.735Z,27.13
2018-02-15T01:35:59.287Z,25.30
2018-02-15T01:38:26.904Z,26.48
2018-02-15T01:40:54.506Z,26.92
2018-02-15T01:43:22.094Z,24.15
2018-02-15T01:45:49.682Z,23.80
2018-02-15T01:48:17.996Z,26.85
2018-02-15T01:50:45.560Z,25.30
2018-02-15T01:53:13.148Z,24.77
2018-02-15T01:55:40.706Z,25.08
2018-02-15T01:58:08.312Z,25.05
2018-02-15T02:00:35.890Z,27.87
2018-02-15T02:03:03.484Z,27.60
2018-02-15T02:05:31.049Z,26.10
2018-02-15T02:07:58.672Z,25.40
2018-02-15T02:10:26.279Z,27.17
2018-02-15T02:12:56.972Z,25.23
2018-02-15T02:15:26.777Z,26.10
2018-02-15T02:17:56.460Z,24.35
2018-02-15T02:20:28.592Z,24.27
2018-02-15T02:22:59.835Z,23.75
2018-02-15T02:25:31.139Z,21.50
2018-02-15T02:28:02.009Z,21.05
2018-02-15T02:30:31.842Z,21.62
2018-02-15T02:33:02.770Z,22.48
2018-02-15T02:35:32.361Z,21.60
2018-02-15T02:38:02.289Z,23.10
2018-02-15T02:40:32.816Z,21.30
2018-02-15T02:43:02.653Z,23.27
2018-02-15T02:45:33.887Z,21.37
2018-02-15T02:48:03.722Z,21.30
2018-02-15T02:50:34.315Z,19.37
2018-02-15T02:53:04.996Z,20.30
2018-02-15T02:55:35.409Z,22.52
2018-02-15T02:58:05.102Z,20.30
2018-02-15T03:00:35.889Z,19.05
2018-02-15T03:03:05.726Z,18.77
2018-02-15T03:05:35.348Z,18.23
2018-02-15T03:08:05.812Z,16.55
2018-02-15T03:10:35.619Z,18.20
2018-02-15T03:13:05.302Z,16.92
2018-02-15T03:15:35.937Z,15.98
2018-02-15T03:18:06.310Z,15.60
2018-02-15T03:20:35.803Z,13.93
2018-02-15T03:23:04.732Z,14.63
2018-02-15T03:25:33.767Z,12.77
2018-02-15T03:28:03.368Z,13.43
2018-02-15T03:30:33.130Z,14.45
2018-02-15T03:33:04.440Z,13.70
2018-02-15T03:35:34.239Z,13.95
2018-02-15T03:38:03.876Z,13.15
2018-02-15T03:40:34.514Z,14.32
2018-02-15T03:43:04.868Z,13.05
2018-02-15T03:45:35.488Z,13.60
2018-02-15T03:48:06.160Z,15.05
2018-02-15T03:50:37.060Z,15.00
2018-02-15T03:53:07.608Z,15.30
2018-02-15T03:55:37.160Z,14.87
2018-02-15T03:58:08.397Z,16.02
2018-02-15T04:00:38.046Z,15.20
2018-02-15T04:03:09.421Z,17.20
2018-02-15T04:05:39.047Z,18.37
2018-02-15T04:08:08.627Z,19.48
2018-02-15T04:10:39.241Z,17.75
2018-02-15T04:13:08.853Z,19.83
2018-02-15T04:15:39.421Z,19.80
2018-02-15T04:18:09.115Z,20.25
2018-02-15T04:20:38.677Z,22.48
2018-02-15T04:23:08.279Z,22.02
2018-02-15T04:25:38.035Z,23.25
2018-02-15T04:28:07.892Z,22.50
2018-02-15T04:30:37.848Z,22.80
2018-02-15T04:33:07.536Z,23.15
2018-02-15T04:35:37.934Z,22.23
2018-02-15T04:38:07.820Z,22.95
2018-02-15T04:40:37.315Z,23.45
2018-02-15T04:43:07.077Z,24.40
2018-02-15T04:45:37.368Z,25.20
2018-02-15T04:48:08.735Z,25.00
2018-02-15T04:50:38.186Z,27.35
2018-02-15T04:53:07.817Z,27.00
2018-02-15T04:55:38.333Z,26.70
2018-02-15T04:58:08.505Z,23.50
2018-02-15T05:00:38.063Z,29.30
2018-02-15T05:03:07.136Z,27.05
2018-02-15T05:05:36.512Z,25.83
2018-02-15T05:08:06.010Z,26.00
2018-02-15T05:10:34.434Z,25.48
2018-02-15T05:13:04.097Z,25.52
2018-02-15T05:15:33.595Z,26.23
2018-02-15T05:18:04.651Z,27.83
2018-02-15T05:20:34.216Z,27.65
2018-02-15T05:23:04.537Z,25.73
2018-02-15T05:25:33.276Z,26.33
2018-02-15T05:28:02.560Z,25.83
2018-02-15T05:30:31.784Z,25.77
2018-02-15T05:32:59.356Z,25.67
2018-02-15T05:35:26.954Z,25.80
2018-02-15T05:37:54.542Z,26.35
2018-02-15T05:40:22.199Z,24.87
2018-02-15T05:42:50.552Z,25.05
2018-02-15T05:45:18.159Z,24.75
2018-02-15T05:47:45.736Z,25.20
2018-02-15T05:50:13.317Z,20.98
2018-02-15T05:52:40.901Z,20.67
2018-02-15T05:55:08.514Z,16.80
2018-02-15T05:57:36.110Z,17.15
2018-02-15T06:00:03.681Z,16.75
2018-02-15T06:02:31.274Z,19.05
2018-02-15T06:04:59.620Z,15.77
2018-02-15T06:07:27.212Z,18.10
2018-02-15T06:09:55.534Z,15.65
2018-02-15T06:12:23.126Z,15.18
2018-02-15T06:14:50.679Z,13.73
2018-02-15T06:17:18.273Z,13.57
2018-02-15T06:19:46.588Z,14.55
2018-02-15T06:22:14.189Z,11.30
2018-02-15T06:24:41.739Z,11.23
2018-02-15T06:27:09.316Z,9.07
2018-02-15T06:29:37.679Z,9.05
2018-02-15T06:32:05.243Z,12.20
2018-02-15T06:34:32.847Z,10.65
2018-02-15T06:37:00.495Z,9.68
2018-02-15T06:39:28.872Z,9.30
2018-02-15T06:41:57.216Z,8.98
2018-02-15T06:44:24.812Z,10.38
2018-02-15T06:46:53.177Z,10.60
2018-02-15T06:49:20.856Z,9.75
2018-02-15T06:51:49.235Z,8.80
2018-02-15T06:54:16.862Z,9.32
2018-02-15T06:56:44.423Z,9.95
2018-02-15T06:59:12.025Z,9.25
2018-02-15T07:01:40.416Z,9.45
2018-02-15T07:04:08.041Z,9.32
2018-02-15T07:06:37.402Z,10.25
2018-02-15T07:09:05.022Z,9.48
2018-02-15T07:11:33.402Z,9.70
2018-02-15T07:14:01.726Z,8.27
2018-02-15T07:16:29.325Z,9.13
2018-02-15T07:18:56.923Z,7.95
2018-02-15T07:21:24.485Z,10.13
2018-02-15T07:23:52.102Z,10.40
2018-02-15T07:26:23.619Z,9.10
2018-02-15T07:28:52.026Z,8.80
2018-02-15T07:31:19.584Z,8.80
2018-02-15T07:33:47.497Z,7.60
2018-02-15T07:36:15.192Z,9.00
2018-02-15T07:38:42.859Z,8.70
2018-02-15T07:41:10.425Z,7.68
2018-02-15T07:43:38.029Z,8.98
2018-02-15T07:46:06.380Z,8.95
2018-02-15T07:48:33.992Z,8.15
2018-02-15T07:51:01.556Z,6.75
2018-02-15T07:53:29.191Z,7.50
2018-02-15T07:55:57.579Z,7.35
2018-02-15T07:58:26.092Z,8.02
2018-02-15T08:00:53.720Z,8.25
2018-02-15T08:03:22.069Z,8.63
2018-02-15T08:05:49.677Z,7.80
2018-02-15T08:08:18.062Z,7.72
2018-02-15T08:10:45.697Z,7.50
2018-02-15T08:13:14.042Z,8.25
2018-02-15T08:15:43.831Z,8.75
2018-02-15T08:18:11.635Z,8.40
2018-02-15T08:20:39.299Z,10.40
2018-02-15T08:23:06.839Z,7.45
2018-02-15T08:25:34.437Z,7.53
2018-02-15T08:28:01.996Z,7.95
2018-02-15T08:30:29.564Z,7.75
2018-02-15T08:32:57.227Z,7.72
2018-02-15T08:35:26.284Z,8.25
2018-02-15T08:37:55.281Z,6.60
2018-02-15T08:40:22.879Z,8.85
2018-02-15T08:42:51.228Z,8.00
2018-02-15T08:45:18.813Z,7.68
2018-02-15T08:47:47.132Z,8.13
2018-02-15T08:50:14.747Z,7.90
2018-02-15T08:52:42.347Z,7.70
2018-02-15T08:55:09.911Z,7.57
2018-02-15T08:57:37.472Z,7.43
2018-02-15T09:00:05.220Z,8.43
2018-02-15T09:02:33.547Z,7.47
2018-02-15T09:05:01.139Z,8.52
2018-02-15T09:07:28.686Z,9.35
2018-02-15T09:09:56.255Z,8.02
2018-02-15T09:12:23.876Z,6.95
2018-02-15T09:14:51.461Z,8.75
2018-02-15T09:17:19.024Z,7.45
2018-02-15T09:19:46.653Z,7.55
2018-02-15T09:22:14.227Z,8.30
2018-02-15T09:24:41.786Z,8.63
2018-02-15T09:27:09.399Z,7.65
2018-02-15T09:29:37.733Z,8.55
2018-02-15T09:32:05.317Z,7.60
2018-02-15T09:34:32.884Z,7.87
2018-02-15T09:37:00.572Z,8.52
2018-02-15T09:39:28.188Z,9.07
2018-02-15T09:41:55.794Z,7.70
2018-02-15T09:44:24.228Z,8.82
2018-02-15T09:46:51.939Z,8.98
2018-02-15T09:49:20.262Z,8.82
2018-02-15T09:51:47.851Z,8.85
2018-02-15T09:54:15.431Z,7.20
2018-02-15T09:56:44.034Z,8.45
2018-02-15T09:59:11.644Z,7.87
2018-02-15T10:01:39.184Z,7.18
2018-02-15T10:04:06.773Z,8.93
2018-02-15T10:06:34.324Z,8.38
2018-02-15T10:09:01.912Z,8.35
2018-02-15T10:11:30.341Z,7.68
2018-02-15T10:13:57.946Z,7.87
2018-02-15T10:16:25.566Z,8.10
2018-02-15T10:18:53.203Z,7.62
2018-02-15T10:21:21.529Z,7.18
2018-02-15T10:23:49.147Z,7.95
2018-02-15T10:26:17.470Z,8.85
2018-02-15T10:28:45.053Z,8.05
2018-02-15T10:31:12.648Z,7.70
2018-02-15T10:33:40.419Z,9.43
2018-02-15T10:36:07.975Z,7.37
2018-02-15T10:38:36.361Z,7.87
2018-02-15T10:41:03.956Z,8.68
2018-02-15T10:43:31.572Z,7.97
2018-02-15T10:45:59.956Z,8.50
2018-02-15T10:48:28.277Z,7.82
2018-02-15T10:50:55.873Z,10.00
2018-02-15T10:53:24.294Z,9.65
2018-02-15T10:55:51.934Z,8.98
2018-02-15T10:58:20.275Z,8.70
2018-02-15T11:00:53.355Z,10.32
2018-02-15T11:03:26.614Z,9.23
2018-02-15T11:06:04.637Z,8.68
2018-02-15T11:08:33.376Z,9.82
2018-02-15T11:11:01.765Z,10.15
2018-02-15T11:13:30.140Z,9.65
2018-02-15T11:15:58.468Z,10.15
2018-02-15T11:18:26.028Z,9.15
2018-02-15T11:23:37.186Z,10.02
2018-02-15T11:26:04.798Z,8.85
2018-02-15T11:28:32.356Z,9.40
2018-02-15T11:31:00.074Z,9.35
2018-02-15T11:33:28.570Z,9.32
2018-02-15T11:35:56.305Z,10.10
2018-02-15T11:38:24.030Z,10.15
2018-02-15T11:40:51.779Z,10.77
2018-02-15T11:43:20.171Z,10.68
2018-02-15T11:45:47.778Z,10.38
2018-02-15T11:48:15.412Z,10.10
2018-02-15T11:50:43.008Z,10.07
2018-02-15T11:53:10.633Z,10.80
2018-02-15T11:55:38.283Z,10.00
2018-02-15T11:58:05.946Z,10.85
2018-02-15T12:00:33.605Z,10.38
2018-02-15T12:03:01.204Z,10.48
2018-02-15T12:05:28.792Z,10.35
2018-02-15T12:07:57.233Z,10.75
2018-02-15T12:10:24.957Z,11.50
2018-02-15T12:12:52.533Z,10.48
2018-02-15T12:15:20.179Z,12.10
2018-02-15T12:17:47.990Z,10.80
2018-02-15T12:20:15.602Z,9.75
2018-02-15T12:22:44.006Z,10.90
2018-02-15T12:25:11.606Z,12.20
2018-02-15T12:27:39.266Z,11.43
2018-02-15T12:30:06.880Z,11.25
2018-02-15T12:32:34.493Z,11.43
2018-02-15T12:35:02.293Z,12.37
2018-02-15T12:37:29.890Z,12.85
2018-02-15T12:39:57.483Z,12.88
2018-02-15T12:42:25.218Z,14.18
2018-02-15T12:44:53.182Z,11.80
2018-02-15T12:47:20.926Z,12.90
2018-02-15T12:49:49.041Z,13.23
2018-02-15T12:52:16.793Z,12.30
2018-02-15T12:54:44.765Z,12.25
2018-02-15T12:57:12.456Z,13.85
2018-02-15T12:59:40.136Z,12.65
2018-02-15T13:02:07.868Z,13.52
2018-02-15T13:04:36.293Z,13.98
2018-02-15T13:07:04.947Z,12.50
2018-02-15T13:09:33.396Z,13.68
2018-02-15T13:12:00.979Z,13.48
2018-02-15T13:14:28.892Z,12.98
2018-02-15T13:16:59.452Z,11.85
2018-02-15T13:19:39.053Z,12.10
2018-02-15T13:22:19.200Z,14.38
2018-02-15T13:24:46.843Z,14.50
2018-02-15T13:27:14.472Z,13.65
2018-02-15T13:29:42.175Z,14.38
2018-02-15T13:32:10.272Z,13.18
2018-02-15T13:34:37.910Z,12.63
2018-02-15T13:37:05.528Z,14.70
2018-02-15T13:39:33.298Z,13.77
2018-02-15T13:42:01.276Z,15.68
2018-02-15T13:44:29.879Z,14.05
2018-02-15T13:46:57.444Z,14.10
2018-02-15T13:49:25.053Z,15.25
2018-02-15T13:51:52.646Z,13.38
2018-02-15T13:54:20.242Z,14.80
2018-02-15T13:56:48.729Z,15.27
2018-02-15T13:59:16.347Z,12.73
2018-02-15T14:01:44.286Z,15.93
2018-02-15T14:04:11.945Z,15.63
2018-02-15T14:06:40.364Z,13.93
2018-02-15T14:09:08.016Z,15.10
2018-02-15T14:11:35.644Z,14.32
2018-02-15T14:14:03.984Z,14.10
2018-02-15T14:16:31.597Z,14.95
2018-02-15T14:18:59.218Z,16.52
2018-02-15T14:21:26.865Z,16.55
2018-02-15T14:23:54.560Z,17.58
2018-02-15T14:26:22.936Z,17.60
2018-02-15T14:28:50.828Z,17.50
2018-02-15T14:31:18.477Z,15.82
2018-02-15T14:33:46.056Z,14.40
2018-02-15T14:36:36.298Z,15.07
2018-02-15T14:39:03.863Z,15.07
2018-02-15T14:41:31.529Z,15.13
2018-02-15T14:43:59.141Z,15.95
2018-02-15T14:46:27.828Z,15.13
2018-02-15T14:48:55.451Z,16.27
2018-02-15T14:51:23.036Z,15.75
2018-02-15T14:53:51.418Z,15.32
2018-02-15T14:56:19.060Z,15.60
2018-02-15T14:58:47.484Z,15.48
2018-02-15T15:01:15.084Z,17.52
2018-02-15T15:03:42.712Z,15.68
2018-02-15T15:06:10.425Z,17.15
2018-02-15T15:08:38.885Z,16.42
2018-02-15T15:11:06.496Z,16.12
2018-02-15T15:13:34.059Z,17.87
2018-02-15T15:16:01.744Z,17.12
2018-02-15T15:18:29.514Z,15.73
2018-02-15T15:20:57.109Z,19.10
2018-02-15T15:23:25.470Z,18.75
2018-02-15T15:25:53.304Z,19.15
2018-02-15T15:28:20.920Z,17.95
2018-02-15T15:30:48.658Z,16.85
2018-02-15T15:33:17.081Z,18.08
2018-02-15T15:35:56.216Z,17.20
2018-02-15T15:38:24.442Z,18.80
2018-02-15T15:40:52.024Z,19.52
2018-02-15T15:43:19.682Z,21.62
2018-02-15T15:45:47.269Z,17.60
2018-02-15T15:48:14.915Z,18.52
2018-02-15T15:50:42.461Z,20.17
2018-02-15T15:53:10.792Z,18.48
2018-02-15T15:55:38.435Z,19.80
2018-02-15T15:58:06.776Z,18.10
2018-02-15T16:00:34.384Z,16.50
2018-02-15T16:03:01.955Z,16.37
2018-02-15T16:05:30.369Z,17.05
2018-02-15T16:07:57.977Z,16.67
2018-02-15T16:10:26.418Z,16.10
2018-02-15T16:12:54.040Z,18.40
2018-02-15T16:15:21.661Z,16.75
2018-02-15T16:17:49.363Z,16.87
2018-02-15T16:20:17.006Z,16.95
2018-02-15T16:22:45.357Z,17.30
2018-02-15T16:25:12.983Z,17.30
2018-02-15T16:27:40.820Z,17.12
2018-02-15T16:30:11.311Z,16.48
2018-02-15T16:32:38.927Z,19.33
2018-02-15T16:35:06.736Z,18.42
2018-02-15T16:37:34.303Z,17.12
2018-02-15T16:40:01.892Z,17.35
2018-02-15T16:42:30.371Z,17.35
2018-02-15T16:44:58.710Z,17.70
2018-02-15T16:47:26.330Z,17.95
2018-02-15T16:49:54.732Z,18.05
2018-02-15T16:52:22.340Z,18.40
2018-02-15T16:54:49.910Z,20.20
2018-02-15T16:57:17.536Z,18.87
2018-02-15T16:59:45.097Z,20.90
2018-02-15T17:02:12.932Z,20.02
2018-02-15T17:04:40.553Z,19.20
2018-02-15T17:07:08.136Z,17.90
2018-02-15T17:09:35.857Z,18.95
2018-02-15T17:12:03.458Z,19.60
2018-02-15T17:14:31.108Z,19.50
2018-02-15T17:16:59.446Z,18.65
2018-02-15T17:19:27.092Z,19.87
2018-02-15T17:21:54.689Z,19.83
2018-02-15T17:24:22.276Z,18.67
2018-02-15T17:26:50.687Z,18.62
2018-02-15T17:29:18.300Z,20.70
2018-02-15T17:31:45.901Z,19.80
2018-02-15T17:34:13.489Z,19.05
2018-02-15T17:36:41.081Z,19.65
2018-02-15T17:39:08.708Z,20.67
2018-02-15T17:41:36.286Z,19.00
2018-02-15T17:44:03.891Z,18.83
2018-02-15T17:46:31.595Z,20.50
2018-02-15T17:48:59.431Z,19.87
2018-02-15T17:51:27.014Z,20.52
2018-02-15T17:53:54.589Z,18.30
2018-02-15T17:56:22.181Z,21.77
2018-02-15T17:58:49.789Z,21.17
2018-02-15T18:01:17.404Z,20.15
2018-02-15T18:03:46.556Z,19.58
2018-02-15T18:06:14.120Z,21.20
2018-02-15T18:08:41.719Z,19.45
2018-02-15T18:11:09.330Z,21.02
2018-02-15T18:13:36.899Z,20.45
2018-02-15T18:16:04.522Z,21.75
2018-02-15T18:18:32.913Z,20.67
2018-02-15T18:21:01.296Z,19.75
2018-02-15T18:23:29.637Z,21.50
2018-02-15T18:25:57.227Z,21.85
2018-02-15T18:28:24.850Z,22.27
2018-02-15T18:30:52.409Z,22.85
2018-02-15T18:33:20.022Z,25.10
2018-02-15T18:35:47.633Z,24.02
2018-02-15T18:38:15.207Z,24.92
2018-02-15T18:40:42.814Z,25.73
2018-02-15T18:43:10.412Z,27.37
2018-02-15T18:45:37.985Z,24.83
2018-02-15T18:48:05.563Z,25.95
2018-02-15T18:50:33.939Z,24.45
2018-02-15T18:53:01.556Z,26.42
2018-02-15T18:55:29.148Z,24.23
2018-02-15T18:57:56.757Z,23.90
2018-02-15T19:00:24.325Z,24.35
2018-02-15T19:02:51.958Z,23.58
2018-02-15T19:05:20.310Z,24.73
2018-02-15T19:07:47.921Z,23.00
2018-02-15T19:10:15.498Z,23.83
2018-02-15T19:12:43.074Z,23.92
2018-02-15T19:15:10.673Z,24.58
2018-02-15T19:17:39.014Z,27.05
2018-02-15T19:20:06.638Z,26.95
2018-02-15T19:22:34.199Z,25.88
2018-02-15T19:25:01.799Z,26.08
2018-02-15T19:27:29.466Z,26.15
2018-02-15T19:29:57.086Z,29.70
2018-02-15T19:32:24.700Z,26.42
2018-02-15T19:34:52.286Z,26.90
2018-02-15T19:37:20.792Z,27.98
2018-02-15T19:39:48.386Z,27.45
2018-02-15T19:42:15.990Z,29.70
2018-02-15T19:44:44.327Z,28.95
2018-02-15T19:47:11.949Z,27.83
2018-02-15T19:49:40.294Z,29.30
2018-02-15T19:52:07.881Z,29.15
2018-02-15T19:54:36.269Z,27.92
2018-02-15T19:57:03.869Z,29.12
2018-02-15T19:59:31.450Z,28.55
2018-02-15T20:02:01.180Z,28.48
2018-02-15T20:04:28.763Z,28.98
2018-02-15T20:06:56.373Z,28.85
2018-02-15T20:09:23.962Z,27.80
2018-02-15T20:11:52.297Z,26.10
2018-02-15T20:14:19.906Z,26.60
2018-02-15T20:16:48.251Z,27.85
2018-02-15T20:19:15.859Z,29.98
2018-02-15T20:21:43.427Z,27.60
2018-02-15T20:24:11.064Z,27.35
2018-02-15T20:26:45.187Z,27.13
2018-02-15T20:29:13.530Z,27.48
2018-02-15T20:31:41.088Z,29.73
2018-02-15T20:34:08.705Z,29.08
2018-02-15T20:36:36.330Z,28.30
2018-02-15T20:39:09.624Z,27.20
2018-02-15T20:41:37.234Z,29.23
2018-02-15T20:44:04.844Z,28.08
2018-02-15T20:46:32.475Z,28.27
2018-02-15T20:49:00.056Z,28.23
2018-02-15T20:51:33.369Z,31.10
2018-02-15T20:54:06.557Z,29.05
2018-02-15T20:56:34.168Z,31.62
2018-02-15T20:59:01.775Z,32.00
2018-02-15T21:01:31.434Z,32.42
2018-02-15T21:03:59.038Z,30.25
2018-02-15T21:06:26.606Z,30.37
2018-02-15T21:08:54.223Z,30.45
2018-02-15T21:11:21.812Z,31.48
2018-02-15T21:13:49.386Z,31.67
2018-02-15T21:16:17.004Z,30.30
2018-02-15T21:18:44.605Z,31.83
2018-02-15T21:21:12.169Z,30.40
2018-02-15T21:23:39.725Z,30.40
2018-02-15T21:26:07.366Z,33.17
2018-02-15T21:28:34.947Z,29.80
2018-02-15T21:31:02.523Z,31.83
2018-02-15T21:33:30.128Z,30.55
2018-02-15T21:35:57.688Z,33.13
2018-02-15T21:38:25.296Z,30.42
2018-02-15T21:40:52.883Z,30.95
2018-02-15T21:43:21.270Z,30.45
2018-02-15T21:45:48.836Z,31.17
2018-02-15T21:48:16.445Z,30.88
2018-02-15T21:50:44.010Z,29.17
2018-02-15T21:53:11.624Z,29.80
2018-02-15T21:55:39.232Z,29.08
2018-02-15T21:58:06.811Z,30.15
2018-02-15T22:00:34.434Z,28.52
2018-02-15T22:03:02.005Z,30.17
2018-02-15T22:05:29.583Z,30.73
2018-02-15T22:07:57.195Z,29.55
2018-02-15T22:10:24.773Z,30.80
2018-02-15T22:12:52.352Z,31.20
2018-02-15T22:15:19.947Z,31.50
2018-02-15T22:17:48.340Z,30.98
2018-02-15T22:20:16.714Z,33.42
2018-02-15T22:22:45.127Z,33.13
2018-02-15T22:25:12.690Z,32.80
2018-02-15T22:27:40.337Z,32.50
2018-02-15T22:30:07.904Z,31.75
2018-02-15T22:32:35.528Z,31.17
2018-02-15T22:35:03.900Z,33.20
2018-02-15T22:37:31.484Z,31.12
2018-02-15T22:39:59.850Z,31.23
2018-02-15T22:42:28.205Z,31.23
2018-02-15T22:44:55.852Z,31.50
2018-02-15T22:47:23.428Z,33.17
2018-02-15T22:49:51.049Z,35.08
2018-02-15T22:52:18.661Z,32.60
2018-02-15T22:54:46.218Z,32.83
2018-02-15T22:57:13.854Z,30.70
2018-02-15T22:59:41.483Z,34.30
2018-02-15T23:02:09.065Z,34.50
2018-02-15T23:04:36.693Z,32.13
2018-02-15T23:07:05.042Z,32.75
2018-02-15T23:09:32.652Z,31.65
2018-02-15T23:12:00.259Z,33.10
2018-02-15T23:14:27.877Z,29.02
2018-02-15T23:16:55.438Z,31.90
2018-02-15T23:19:23.059Z,33.70
2018-02-15T23:21:50.643Z,33.30
2018-02-15T23:24:19.001Z,32.10
2018-02-15T23:26:46.619Z,35.13
2018-02-15T23:29:14.230Z,33.45
2018-02-15T23:31:42.610Z,31.70
2018-02-15T23:34:10.945Z,32.88
2018-02-15T23:36:38.580Z,33.80
2018-02-15T23:39:06.165Z,33.75
2018-02-15T23:41:33.772Z,32.78
2018-02-15T23:44:02.137Z,32.58
2018-02-15T23:46:29.744Z,34.28
2018-02-15T23:48:57.301Z,31.58
2018-02-15T23:51:24.917Z,31.60
2018-02-15T23:53:52.481Z,31.12
2018-02-15T23:56:20.075Z,31.05
2018-02-15T23:58:47.686Z,33.35
